sensor_id;sensor_type;location;lat;lon;timestamp;temperature;humidity
37794;DHT22;23632;48.826;15.176;2022-09-09T00:04:34;15.80;85.60
37794;DHT22;23632;48.826;15.176;2022-09-09T00:07:22;15.80;85.60
37794;DHT22;23632;48.826;15.176;2022-09-09T00:10:13;15.70;85.50
37794;DHT22;23632;48.826;15.176;2022-09-09T00:16:10;15.70;85.40
37794;DHT22;23632;48.826;15.176;2022-09-09T00:21:37;15.60;85.50
37794;DHT22;23632;48.826;15.176;2022-09-09T00:24:29;15.60;85.50
37794;DHT22;23632;48.826;15.176;2022-09-09T00:27:08;15.50;85.30
37794;DHT22;23632;48.826;15.176;2022-09-09T00:29:47;15.50;85.20
37794;DHT22;23632;48.826;15.176;2022-09-09T00:32:21;15.50;85.10
37794;DHT22;23632;48.826;15.176;2022-09-09T00:35:16;15.40;85.00
37794;DHT22;23632;48.826;15.176;2022-09-09T00:38:01;15.40;85.10
37794;DHT22;23632;48.826;15.176;2022-09-09T00:41:12;15.40;85.10
37794;DHT22;23632;48.826;15.176;2022-09-09T00:43:55;15.30;85.10
37794;DHT22;23632;48.826;15.176;2022-09-09T00:49:30;15.30;85.10
37794;DHT22;23632;48.826;15.176;2022-09-09T00:58:28;15.10;84.80
37794;DHT22;23632;48.826;15.176;2022-09-09T01:01:06;15.00;84.50
37794;DHT22;23632;48.826;15.176;2022-09-09T01:03:38;15.00;84.50
37794;DHT22;23632;48.826;15.176;2022-09-09T01:06:34;14.90;84.80
37794;DHT22;23632;48.826;15.176;2022-09-09T01:12:15;14.90;84.70
37794;DHT22;23632;48.826;15.176;2022-09-09T01:14:51;14.80;84.40
37794;DHT22;23632;48.826;15.176;2022-09-09T01:17:28;14.70;84.30
37794;DHT22;23632;48.826;15.176;2022-09-09T01:20:17;14.70;84.30
37794;DHT22;23632;48.826;15.176;2022-09-09T01:29:00;14.60;84.70
37794;DHT22;23632;48.826;15.176;2022-09-09T01:31:41;14.50;84.60
37794;DHT22;23632;48.826;15.176;2022-09-09T01:34:33;14.50;84.60
37794;DHT22;23632;48.826;15.176;2022-09-09T01:37:07;14.50;84.60
37794;DHT22;23632;48.826;15.176;2022-09-09T01:39:39;14.40;84.70
37794;DHT22;23632;48.826;15.176;2022-09-09T01:42:12;14.40;84.70
37794;DHT22;23632;48.826;15.176;2022-09-09T01:44:41;14.40;84.80
37794;DHT22;23632;48.826;15.176;2022-09-09T01:47:09;14.40;84.70
37794;DHT22;23632;48.826;15.176;2022-09-09T01:49:59;14.30;84.60
37794;DHT22;23632;48.826;15.176;2022-09-09T01:52:29;14.30;84.80
37794;DHT22;23632;48.826;15.176;2022-09-09T01:54:58;14.30;85.10
37794;DHT22;23632;48.826;15.176;2022-09-09T01:57:50;14.30;85.20
37794;DHT22;23632;48.826;15.176;2022-09-09T02:00:29;14.30;85.30
37794;DHT22;23632;48.826;15.176;2022-09-09T02:03:15;14.30;85.30
37794;DHT22;23632;48.826;15.176;2022-09-09T02:09:00;14.30;85.20
37794;DHT22;23632;48.826;15.176;2022-09-09T02:11:31;14.30;85.10
37794;DHT22;23632;48.826;15.176;2022-09-09T02:14:10;14.30;85.00
37794;DHT22;23632;48.826;15.176;2022-09-09T02:16:47;14.30;84.70
37794;DHT22;23632;48.826;15.176;2022-09-09T02:19:27;14.30;84.60
37794;DHT22;23632;48.826;15.176;2022-09-09T02:22:22;14.20;84.40
37794;DHT22;23632;48.826;15.176;2022-09-09T02:24:51;14.20;84.40
37794;DHT22;23632;48.826;15.176;2022-09-09T02:27:25;14.10;85.00
37794;DHT22;23632;48.826;15.176;2022-09-09T02:29:53;14.10;84.30
37794;DHT22;23632;48.826;15.176;2022-09-09T02:32:35;14.10;84.30
37794;DHT22;23632;48.826;15.176;2022-09-09T02:35:20;14.00;84.20
37794;DHT22;23632;48.826;15.176;2022-09-09T02:37:53;14.10;84.20
37794;DHT22;23632;48.826;15.176;2022-09-09T02:40:23;13.90;84.10
37794;DHT22;23632;48.826;15.176;2022-09-09T02:42:57;13.90;84.20
37794;DHT22;23632;48.826;15.176;2022-09-09T02:45:40;13.90;84.20
37794;DHT22;23632;48.826;15.176;2022-09-09T02:48:21;13.80;84.20
37794;DHT22;23632;48.826;15.176;2022-09-09T02:51:08;13.80;84.20
37794;DHT22;23632;48.826;15.176;2022-09-09T02:53:50;13.80;84.30
37794;DHT22;23632;48.826;15.176;2022-09-09T02:56:33;13.70;84.30
37794;DHT22;23632;48.826;15.176;2022-09-09T02:59:06;13.70;84.40
37794;DHT22;23632;48.826;15.176;2022-09-09T03:01:35;13.70;84.30
37794;DHT22;23632;48.826;15.176;2022-09-09T03:04:03;13.70;84.40
37794;DHT22;23632;48.826;15.176;2022-09-09T03:06:32;13.70;84.50
37794;DHT22;23632;48.826;15.176;2022-09-09T03:09:10;13.70;84.50
37794;DHT22;23632;48.826;15.176;2022-09-09T03:11:38;13.60;84.40
37794;DHT22;23632;48.826;15.176;2022-09-09T03:14:06;13.60;84.40
37794;DHT22;23632;48.826;15.176;2022-09-09T03:16:35;13.60;84.40
37794;DHT22;23632;48.826;15.176;2022-09-09T03:19:03;13.60;84.40
37794;DHT22;23632;48.826;15.176;2022-09-09T03:21:30;13.60;84.40
37794;DHT22;23632;48.826;15.176;2022-09-09T03:23:59;13.50;84.30
37794;DHT22;23632;48.826;15.176;2022-09-09T03:26:27;13.50;84.40
37794;DHT22;23632;48.826;15.176;2022-09-09T03:28:54;13.50;84.40
37794;DHT22;23632;48.826;15.176;2022-09-09T03:31:23;13.50;84.50
37794;DHT22;23632;48.826;15.176;2022-09-09T03:33:51;13.50;84.60
37794;DHT22;23632;48.826;15.176;2022-09-09T03:36:20;13.50;84.70
37794;DHT22;23632;48.826;15.176;2022-09-09T03:38:47;13.50;84.60
37794;DHT22;23632;48.826;15.176;2022-09-09T03:41:14;13.50;84.60
37794;DHT22;23632;48.826;15.176;2022-09-09T03:43:43;13.50;84.60
37794;DHT22;23632;48.826;15.176;2022-09-09T03:46:10;13.50;84.50
37794;DHT22;23632;48.826;15.176;2022-09-09T03:48:38;13.50;84.50
37794;DHT22;23632;48.826;15.176;2022-09-09T03:51:05;13.50;84.60
37794;DHT22;23632;48.826;15.176;2022-09-09T03:53:34;13.40;84.50
37794;DHT22;23632;48.826;15.176;2022-09-09T03:56:03;13.40;84.40
37794;DHT22;23632;48.826;15.176;2022-09-09T03:58:31;13.40;84.40
37794;DHT22;23632;48.826;15.176;2022-09-09T04:01:07;13.40;84.40
37794;DHT22;23632;48.826;15.176;2022-09-09T04:03:42;13.40;84.40
37794;DHT22;23632;48.826;15.176;2022-09-09T04:06:13;13.40;84.40
37794;DHT22;23632;48.826;15.176;2022-09-09T04:08:44;13.40;84.50
37794;DHT22;23632;48.826;15.176;2022-09-09T04:11:13;13.40;84.70
37794;DHT22;23632;48.826;15.176;2022-09-09T04:13:40;13.40;84.80
37794;DHT22;23632;48.826;15.176;2022-09-09T04:16:11;13.40;84.80
37794;DHT22;23632;48.826;15.176;2022-09-09T04:18:42;13.30;84.60
37794;DHT22;23632;48.826;15.176;2022-09-09T04:21:10;13.40;84.60
37794;DHT22;23632;48.826;15.176;2022-09-09T04:23:39;13.30;84.60
37794;DHT22;23632;48.826;15.176;2022-09-09T04:26:07;13.40;84.80
37794;DHT22;23632;48.826;15.176;2022-09-09T04:28:35;13.30;84.80
37794;DHT22;23632;48.826;15.176;2022-09-09T04:31:21;13.40;85.10
37794;DHT22;23632;48.826;15.176;2022-09-09T04:33:53;13.40;85.20
37794;DHT22;23632;48.826;15.176;2022-09-09T04:36:21;13.40;85.20
37794;DHT22;23632;48.826;15.176;2022-09-09T04:38:51;13.40;85.30
37794;DHT22;23632;48.826;15.176;2022-09-09T04:41:19;13.40;85.50
37794;DHT22;23632;48.826;15.176;2022-09-09T04:43:50;13.40;85.50
37794;DHT22;23632;48.826;15.176;2022-09-09T04:46:17;13.50;85.60
37794;DHT22;23632;48.826;15.176;2022-09-09T04:48:44;13.60;85.90
37794;DHT22;23632;48.826;15.176;2022-09-09T04:51:13;13.50;86.00
37794;DHT22;23632;48.826;15.176;2022-09-09T04:53:44;13.60;86.30
37794;DHT22;23632;48.826;15.176;2022-09-09T04:56:16;13.60;86.60
37794;DHT22;23632;48.826;15.176;2022-09-09T04:58:50;13.70;87.10
37794;DHT22;23632;48.826;15.176;2022-09-09T05:01:21;13.80;87.50
37794;DHT22;23632;48.826;15.176;2022-09-09T05:03:52;13.90;87.90
37794;DHT22;23632;48.826;15.176;2022-09-09T05:06:22;14.10;88.50
37794;DHT22;23632;48.826;15.176;2022-09-09T05:08:55;14.20;88.90
37794;DHT22;23632;48.826;15.176;2022-09-09T05:11:30;14.40;89.40
37794;DHT22;23632;48.826;15.176;2022-09-09T05:14:07;14.60;89.80
37794;DHT22;23632;48.826;15.176;2022-09-09T05:16:35;14.80;90.00
37794;DHT22;23632;48.826;15.176;2022-09-09T05:19:03;14.90;90.10
37794;DHT22;23632;48.826;15.176;2022-09-09T05:21:50;15.10;90.20
37794;DHT22;23632;48.826;15.176;2022-09-09T05:24:23;15.30;90.30
37794;DHT22;23632;48.826;15.176;2022-09-09T05:26:53;15.50;90.30
37794;DHT22;23632;48.826;15.176;2022-09-09T05:29:25;15.70;90.30
37794;DHT22;23632;48.826;15.176;2022-09-09T05:31:54;15.90;90.30
37794;DHT22;23632;48.826;15.176;2022-09-09T05:34:21;16.00;90.20
37794;DHT22;23632;48.826;15.176;2022-09-09T05:36:51;16.20;90.10
37794;DHT22;23632;48.826;15.176;2022-09-09T05:39:20;16.30;90.00
37794;DHT22;23632;48.826;15.176;2022-09-09T05:41:48;16.40;90.20
37794;DHT22;23632;48.826;15.176;2022-09-09T05:44:15;16.60;89.70
37794;DHT22;23632;48.826;15.176;2022-09-09T05:46:43;16.60;89.50
37794;DHT22;23632;48.826;15.176;2022-09-09T05:49:13;16.70;89.30
37794;DHT22;23632;48.826;15.176;2022-09-09T05:51:43;16.80;88.90
37794;DHT22;23632;48.826;15.176;2022-09-09T05:54:13;16.90;88.90
37794;DHT22;23632;48.826;15.176;2022-09-09T05:56:46;16.90;88.80
37794;DHT22;23632;48.826;15.176;2022-09-09T05:59:17;17.00;88.80
37794;DHT22;23632;48.826;15.176;2022-09-09T06:01:45;17.10;88.70
37794;DHT22;23632;48.826;15.176;2022-09-09T06:04:21;17.10;88.70
37794;DHT22;23632;48.826;15.176;2022-09-09T06:06:49;17.20;88.70
37794;DHT22;23632;48.826;15.176;2022-09-09T06:09:18;17.20;88.70
37794;DHT22;23632;48.826;15.176;2022-09-09T06:11:45;17.40;88.80
37794;DHT22;23632;48.826;15.176;2022-09-09T06:14:14;17.40;88.70
37794;DHT22;23632;48.826;15.176;2022-09-09T06:16:44;17.50;88.50
37794;DHT22;23632;48.826;15.176;2022-09-09T06:19:17;17.50;88.20
37794;DHT22;23632;48.826;15.176;2022-09-09T06:21:44;17.60;88.00
37794;DHT22;23632;48.826;15.176;2022-09-09T06:24:12;17.60;87.50
37794;DHT22;23632;48.826;15.176;2022-09-09T06:26:44;17.60;87.20
37794;DHT22;23632;48.826;15.176;2022-09-09T06:29:17;17.70;87.30
37794;DHT22;23632;48.826;15.176;2022-09-09T06:31:45;17.70;87.40
37794;DHT22;23632;48.826;15.176;2022-09-09T06:34:15;17.70;87.60
37794;DHT22;23632;48.826;15.176;2022-09-09T06:36:46;17.80;88.00
37794;DHT22;23632;48.826;15.176;2022-09-09T06:39:13;17.80;88.10
37794;DHT22;23632;48.826;15.176;2022-09-09T06:41:43;17.90;88.30
37794;DHT22;23632;48.826;15.176;2022-09-09T06:44:35;18.00;88.50
37794;DHT22;23632;48.826;15.176;2022-09-09T06:47:06;18.10;88.60
37794;DHT22;23632;48.826;15.176;2022-09-09T06:49:33;18.30;88.90
37794;DHT22;23632;48.826;15.176;2022-09-09T06:52:05;18.40;88.90
37794;DHT22;23632;48.826;15.176;2022-09-09T06:54:36;18.50;89.10
37794;DHT22;23632;48.826;15.176;2022-09-09T06:57:04;18.70;89.10
37794;DHT22;23632;48.826;15.176;2022-09-09T06:59:54;18.80;89.30
37794;DHT22;23632;48.826;15.176;2022-09-09T07:02:21;19.10;89.50
37794;DHT22;23632;48.826;15.176;2022-09-09T07:04:49;19.30;89.50
37794;DHT22;23632;48.826;15.176;2022-09-09T07:07:18;19.50;89.60
37794;DHT22;23632;48.826;15.176;2022-09-09T07:09:45;19.70;89.30
37794;DHT22;23632;48.826;15.176;2022-09-09T07:12:13;20.00;89.20
37794;DHT22;23632;48.826;15.176;2022-09-09T07:14:47;20.20;89.10
37794;DHT22;23632;48.826;15.176;2022-09-09T07:17:14;20.40;88.80
37794;DHT22;23632;48.826;15.176;2022-09-09T07:19:41;20.60;88.70
37794;DHT22;23632;48.826;15.176;2022-09-09T07:22:09;20.80;88.40
37794;DHT22;23632;48.826;15.176;2022-09-09T07:24:38;21.00;87.70
37794;DHT22;23632;48.826;15.176;2022-09-09T07:27:05;21.20;87.50
37794;DHT22;23632;48.826;15.176;2022-09-09T07:29:35;21.40;87.00
37794;DHT22;23632;48.826;15.176;2022-09-09T07:32:03;21.50;86.60
37794;DHT22;23632;48.826;15.176;2022-09-09T07:34:35;21.60;86.30
37794;DHT22;23632;48.826;15.176;2022-09-09T07:37:03;21.80;86.00
37794;DHT22;23632;48.826;15.176;2022-09-09T07:39:32;21.90;85.70
37794;DHT22;23632;48.826;15.176;2022-09-09T07:41:59;22.00;85.60
37794;DHT22;23632;48.826;15.176;2022-09-09T07:44:27;22.20;85.20
37794;DHT22;23632;48.826;15.176;2022-09-09T07:47:06;22.30;84.80
37794;DHT22;23632;48.826;15.176;2022-09-09T07:49:37;22.40;84.20
37794;DHT22;23632;48.826;15.176;2022-09-09T07:52:08;22.50;83.60
37794;DHT22;23632;48.826;15.176;2022-09-09T07:54:38;22.60;83.60
37794;DHT22;23632;48.826;15.176;2022-09-09T07:57:06;22.60;83.60
37794;DHT22;23632;48.826;15.176;2022-09-09T07:59:35;22.60;83.20
37794;DHT22;23632;48.826;15.176;2022-09-09T08:02:04;22.70;83.00
37794;DHT22;23632;48.826;15.176;2022-09-09T08:04:34;22.70;82.60
37794;DHT22;23632;48.826;15.176;2022-09-09T08:07:03;22.80;83.40
37794;DHT22;23632;48.826;15.176;2022-09-09T08:09:37;22.80;82.50
37794;DHT22;23632;48.826;15.176;2022-09-09T08:12:11;22.90;82.30
37794;DHT22;23632;48.826;15.176;2022-09-09T08:14:40;22.90;82.10
37794;DHT22;23632;48.826;15.176;2022-09-09T08:17:07;23.00;82.10
37794;DHT22;23632;48.826;15.176;2022-09-09T08:19:34;23.00;81.80
37794;DHT22;23632;48.826;15.176;2022-09-09T08:22:07;23.10;81.90
37794;DHT22;23632;48.826;15.176;2022-09-09T08:24:36;23.20;81.60
37794;DHT22;23632;48.826;15.176;2022-09-09T08:27:04;23.30;81.90
37794;DHT22;23632;48.826;15.176;2022-09-09T08:29:31;23.30;81.70
37794;DHT22;23632;48.826;15.176;2022-09-09T08:32:01;23.40;81.80
37794;DHT22;23632;48.826;15.176;2022-09-09T08:34:30;23.50;81.50
37794;DHT22;23632;48.826;15.176;2022-09-09T08:37:01;23.50;81.10
37794;DHT22;23632;48.826;15.176;2022-09-09T08:39:34;23.60;80.90
37794;DHT22;23632;48.826;15.176;2022-09-09T08:42:08;23.60;79.80
37794;DHT22;23632;48.826;15.176;2022-09-09T08:45:19;23.70;80.10
37794;DHT22;23632;48.826;15.176;2022-09-09T08:51:09;23.70;79.90
37794;DHT22;23632;48.826;15.176;2022-09-09T08:53:43;23.70;79.90
37794;DHT22;23632;48.826;15.176;2022-09-09T08:56:21;23.70;78.90
37794;DHT22;23632;48.826;15.176;2022-09-09T08:58:54;23.60;79.10
37794;DHT22;23632;48.826;15.176;2022-09-09T09:04:46;23.60;78.50
37794;DHT22;23632;48.826;15.176;2022-09-09T09:07:39;23.60;79.70
37794;DHT22;23632;48.826;15.176;2022-09-09T09:13:22;23.80;78.80
37794;DHT22;23632;48.826;15.176;2022-09-09T09:16:06;23.80;79.20
37794;DHT22;23632;48.826;15.176;2022-09-09T09:18:45;23.90;78.90
37794;DHT22;23632;48.826;15.176;2022-09-09T09:21:50;24.00;79.40
37794;DHT22;23632;48.826;15.176;2022-09-09T09:27:13;24.10;77.80
37794;DHT22;23632;48.826;15.176;2022-09-09T09:29:50;24.10;77.00
37794;DHT22;23632;48.826;15.176;2022-09-09T09:32:41;24.10;78.10
37794;DHT22;23632;48.826;15.176;2022-09-09T09:35:22;24.20;77.70
37794;DHT22;23632;48.826;15.176;2022-09-09T09:37:49;24.20;77.60
37794;DHT22;23632;48.826;15.176;2022-09-09T09:40:49;24.20;77.70
37794;DHT22;23632;48.826;15.176;2022-09-09T09:43:22;24.20;76.80
37794;DHT22;23632;48.826;15.176;2022-09-09T09:45:58;24.30;76.70
37794;DHT22;23632;48.826;15.176;2022-09-09T09:48:43;24.30;76.90
37794;DHT22;23632;48.826;15.176;2022-09-09T09:51:14;24.30;77.20
37794;DHT22;23632;48.826;15.176;2022-09-09T09:53:44;24.30;76.40
37794;DHT22;23632;48.826;15.176;2022-09-09T09:56:14;24.30;77.10
37794;DHT22;23632;48.826;15.176;2022-09-09T10:01:28;24.50;76.30
37794;DHT22;23632;48.826;15.176;2022-09-09T10:04:14;24.50;76.30
37794;DHT22;23632;48.826;15.176;2022-09-09T10:06:50;24.60;76.90
37794;DHT22;23632;48.826;15.176;2022-09-09T10:09:28;24.60;77.10
37794;DHT22;23632;48.826;15.176;2022-09-09T10:12:10;24.70;75.70
37794;DHT22;23632;48.826;15.176;2022-09-09T10:15:29;24.80;75.40
37794;DHT22;23632;48.826;15.176;2022-09-09T10:24:22;24.90;74.70
37794;DHT22;23632;48.826;15.176;2022-09-09T10:33:49;24.90;74.40
37794;DHT22;23632;48.826;15.176;2022-09-09T10:36:25;24.90;73.80
37794;DHT22;23632;48.826;15.176;2022-09-09T10:39:05;24.90;74.20
37794;DHT22;23632;48.826;15.176;2022-09-09T10:42:08;25.00;74.20
37794;DHT22;23632;48.826;15.176;2022-09-09T10:48:15;25.20;74.50
37794;DHT22;23632;48.826;15.176;2022-09-09T10:56:16;25.40;74.00
37794;DHT22;23632;48.826;15.176;2022-09-09T10:58:55;25.50;73.80
37794;DHT22;23632;48.826;15.176;2022-09-09T11:01:45;25.50;73.90
37794;DHT22;23632;48.826;15.176;2022-09-09T11:04:24;25.60;74.30
37794;DHT22;23632;48.826;15.176;2022-09-09T11:07:01;25.60;73.60
37794;DHT22;23632;48.826;15.176;2022-09-09T11:09:42;25.60;73.70
37794;DHT22;23632;48.826;15.176;2022-09-09T11:12:18;25.70;72.80
37794;DHT22;23632;48.826;15.176;2022-09-09T11:15:01;25.70;73.00
37794;DHT22;23632;48.826;15.176;2022-09-09T11:17:41;25.70;73.50
37794;DHT22;23632;48.826;15.176;2022-09-09T11:20:13;25.70;72.50
37794;DHT22;23632;48.826;15.176;2022-09-09T11:25:38;25.70;73.10
37794;DHT22;23632;48.826;15.176;2022-09-09T11:28:27;25.80;72.90
37794;DHT22;23632;48.826;15.176;2022-09-09T11:34:27;25.70;72.20
37794;DHT22;23632;48.826;15.176;2022-09-09T11:37:07;25.80;71.50
37794;DHT22;23632;48.826;15.176;2022-09-09T11:40:25;25.80;71.90
37794;DHT22;23632;48.826;15.176;2022-09-09T11:43:07;25.80;72.30
37794;DHT22;23632;48.826;15.176;2022-09-09T11:45:40;25.80;73.20
37794;DHT22;23632;48.826;15.176;2022-09-09T12:02:03;25.60;71.50
37794;DHT22;23632;48.826;15.176;2022-09-09T12:04:54;25.50;72.30
37794;DHT22;23632;48.826;15.176;2022-09-09T12:12:50;25.00;72.50
37794;DHT22;23632;48.826;15.176;2022-09-09T12:15:23;24.80;72.70
37794;DHT22;23632;48.826;15.176;2022-09-09T12:17:57;24.60;73.10
37794;DHT22;23632;48.826;15.176;2022-09-09T12:20:39;24.50;72.70
37794;DHT22;23632;48.826;15.176;2022-09-09T12:23:46;24.30;72.90
37794;DHT22;23632;48.826;15.176;2022-09-09T12:27:01;24.20;72.90
37794;DHT22;23632;48.826;15.176;2022-09-09T12:29:42;24.00;73.10
37794;DHT22;23632;48.826;15.176;2022-09-09T12:32:24;23.80;73.00
37794;DHT22;23632;48.826;15.176;2022-09-09T12:34:59;23.70;73.70
37794;DHT22;23632;48.826;15.176;2022-09-09T12:37:42;23.60;73.60
37794;DHT22;23632;48.826;15.176;2022-09-09T12:40:27;23.50;74.30
37794;DHT22;23632;48.826;15.176;2022-09-09T12:42:55;23.40;74.00
37794;DHT22;23632;48.826;15.176;2022-09-09T12:45:24;23.30;74.60
37794;DHT22;23632;48.826;15.176;2022-09-09T12:48:03;23.20;74.60
37794;DHT22;23632;48.826;15.176;2022-09-09T12:50:37;23.10;74.60
37794;DHT22;23632;48.826;15.176;2022-09-09T12:53:23;23.10;74.60
37794;DHT22;23632;48.826;15.176;2022-09-09T12:56:09;23.10;75.00
37794;DHT22;23632;48.826;15.176;2022-09-09T12:58:51;23.20;74.80
37794;DHT22;23632;48.826;15.176;2022-09-09T13:01:29;23.20;75.00
37794;DHT22;23632;48.826;15.176;2022-09-09T13:03:58;23.20;74.70
37794;DHT22;23632;48.826;15.176;2022-09-09T13:06:30;23.20;75.30
37794;DHT22;23632;48.826;15.176;2022-09-09T13:09:00;23.20;75.10
37794;DHT22;23632;48.826;15.176;2022-09-09T13:11:39;23.20;75.30
37794;DHT22;23632;48.826;15.176;2022-09-09T13:14:30;23.20;75.00
37794;DHT22;23632;48.826;15.176;2022-09-09T13:17:03;23.30;74.80
37794;DHT22;23632;48.826;15.176;2022-09-09T13:19:38;23.30;75.90
37794;DHT22;23632;48.826;15.176;2022-09-09T13:22:35;23.40;73.90
37794;DHT22;23632;48.826;15.176;2022-09-09T13:25:19;23.40;74.70
37794;DHT22;23632;48.826;15.176;2022-09-09T13:30:34;23.50;74.80
37794;DHT22;23632;48.826;15.176;2022-09-09T13:38:40;23.50;74.60
37794;DHT22;23632;48.826;15.176;2022-09-09T13:41:22;23.50;74.40
37794;DHT22;23632;48.826;15.176;2022-09-09T13:43:52;23.50;74.10
37794;DHT22;23632;48.826;15.176;2022-09-09T13:46:35;23.50;74.30
37794;DHT22;23632;48.826;15.176;2022-09-09T13:49:21;23.50;73.40
37794;DHT22;23632;48.826;15.176;2022-09-09T13:51:50;23.50;73.90
37794;DHT22;23632;48.826;15.176;2022-09-09T13:54:20;23.50;73.60
37794;DHT22;23632;48.826;15.176;2022-09-09T13:56:48;23.50;73.60
37794;DHT22;23632;48.826;15.176;2022-09-09T13:59:18;23.40;73.10
37794;DHT22;23632;48.826;15.176;2022-09-09T14:02:08;23.40;73.20
37794;DHT22;23632;48.826;15.176;2022-09-09T14:04:35;23.30;73.10
37794;DHT22;23632;48.826;15.176;2022-09-09T14:07:03;23.30;73.30
37794;DHT22;23632;48.826;15.176;2022-09-09T14:09:30;23.20;72.80
37794;DHT22;23632;48.826;15.176;2022-09-09T14:11:57;23.20;72.90
37794;DHT22;23632;48.826;15.176;2022-09-09T14:14:24;23.10;72.90
37794;DHT22;23632;48.826;15.176;2022-09-09T14:16:52;23.00;73.20
37794;DHT22;23632;48.826;15.176;2022-09-09T14:19:19;23.00;72.80
37794;DHT22;23632;48.826;15.176;2022-09-09T14:21:47;22.90;73.30
37794;DHT22;23632;48.826;15.176;2022-09-09T14:24:15;22.90;73.30
37794;DHT22;23632;48.826;15.176;2022-09-09T14:26:42;22.80;73.20
37794;DHT22;23632;48.826;15.176;2022-09-09T14:29:09;22.70;73.00
37794;DHT22;23632;48.826;15.176;2022-09-09T14:31:36;22.60;72.90
37794;DHT22;23632;48.826;15.176;2022-09-09T14:34:04;22.60;72.90
37794;DHT22;23632;48.826;15.176;2022-09-09T14:36:31;22.50;73.10
37794;DHT22;23632;48.826;15.176;2022-09-09T14:38:58;22.30;73.10
37794;DHT22;23632;48.826;15.176;2022-09-09T14:41:26;22.30;73.10
37794;DHT22;23632;48.826;15.176;2022-09-09T14:43:55;22.10;73.00
37794;DHT22;23632;48.826;15.176;2022-09-09T14:46:23;22.00;73.10
37794;DHT22;23632;48.826;15.176;2022-09-09T14:48:50;21.90;73.10
37794;DHT22;23632;48.826;15.176;2022-09-09T14:51:20;21.80;73.00
37794;DHT22;23632;48.826;15.176;2022-09-09T14:53:54;21.80;73.10
37794;DHT22;23632;48.826;15.176;2022-09-09T14:56:28;21.70;73.10
37794;DHT22;23632;48.826;15.176;2022-09-09T14:58:58;21.60;73.30
37794;DHT22;23632;48.826;15.176;2022-09-09T15:01:30;21.60;73.20
37794;DHT22;23632;48.826;15.176;2022-09-09T15:04:03;21.50;73.30
37794;DHT22;23632;48.826;15.176;2022-09-09T15:06:33;21.50;73.40
37794;DHT22;23632;48.826;15.176;2022-09-09T15:09:03;21.50;73.70
37794;DHT22;23632;48.826;15.176;2022-09-09T15:11:33;21.40;73.90
37794;DHT22;23632;48.826;15.176;2022-09-09T15:14:06;21.40;73.70
37794;DHT22;23632;48.826;15.176;2022-09-09T15:16:35;21.40;74.10
37794;DHT22;23632;48.826;15.176;2022-09-09T15:19:02;21.30;74.10
37794;DHT22;23632;48.826;15.176;2022-09-09T15:21:32;21.30;74.20
37794;DHT22;23632;48.826;15.176;2022-09-09T15:24:02;21.30;74.00
37794;DHT22;23632;48.826;15.176;2022-09-09T15:26:29;21.20;74.20
37794;DHT22;23632;48.826;15.176;2022-09-09T15:28:57;21.20;74.00
37794;DHT22;23632;48.826;15.176;2022-09-09T15:31:30;21.20;74.20
37794;DHT22;23632;48.826;15.176;2022-09-09T15:34:01;21.10;74.50
37794;DHT22;23632;48.826;15.176;2022-09-09T15:39:11;21.10;74.20
37794;DHT22;23632;48.826;15.176;2022-09-09T15:41:46;21.00;74.20
37794;DHT22;23632;48.826;15.176;2022-09-09T15:44:14;21.00;74.40
37794;DHT22;23632;48.826;15.176;2022-09-09T15:46:48;21.00;74.60
37794;DHT22;23632;48.826;15.176;2022-09-09T15:49:22;20.90;74.70
37794;DHT22;23632;48.826;15.176;2022-09-09T15:51:56;20.90;74.80
37794;DHT22;23632;48.826;15.176;2022-09-09T15:54:26;20.90;75.00
37794;DHT22;23632;48.826;15.176;2022-09-09T15:56:55;20.80;75.00
37794;DHT22;23632;48.826;15.176;2022-09-09T15:59:25;20.80;75.00
37794;DHT22;23632;48.826;15.176;2022-09-09T16:01:54;20.80;75.30
37794;DHT22;23632;48.826;15.176;2022-09-09T16:04:24;20.80;75.30
37794;DHT22;23632;48.826;15.176;2022-09-09T16:06:57;20.70;75.40
37794;DHT22;23632;48.826;15.176;2022-09-09T16:09:31;20.70;75.40
37794;DHT22;23632;48.826;15.176;2022-09-09T16:12:00;20.70;75.40
37794;DHT22;23632;48.826;15.176;2022-09-09T16:14:29;20.60;75.50
37794;DHT22;23632;48.826;15.176;2022-09-09T16:17:01;20.60;75.10
37794;DHT22;23632;48.826;15.176;2022-09-09T16:19:29;20.50;75.10
37794;DHT22;23632;48.826;15.176;2022-09-09T16:21:56;20.50;75.10
37794;DHT22;23632;48.826;15.176;2022-09-09T16:24:23;20.40;75.00
37794;DHT22;23632;48.826;15.176;2022-09-09T16:26:53;20.40;75.20
37794;DHT22;23632;48.826;15.176;2022-09-09T16:29:22;20.30;75.30
37794;DHT22;23632;48.826;15.176;2022-09-09T16:31:52;20.30;75.40
37794;DHT22;23632;48.826;15.176;2022-09-09T16:34:20;20.30;75.50
37794;DHT22;23632;48.826;15.176;2022-09-09T16:36:48;20.20;75.40
37794;DHT22;23632;48.826;15.176;2022-09-09T16:39:18;20.20;75.60
37794;DHT22;23632;48.826;15.176;2022-09-09T16:41:47;20.10;75.60
37794;DHT22;23632;48.826;15.176;2022-09-09T16:44:16;20.10;75.70
37794;DHT22;23632;48.826;15.176;2022-09-09T16:46:47;20.10;75.70
37794;DHT22;23632;48.826;15.176;2022-09-09T16:49:26;20.00;75.60
37794;DHT22;23632;48.826;15.176;2022-09-09T16:51:58;20.00;75.80
37794;DHT22;23632;48.826;15.176;2022-09-09T16:54:25;20.00;75.80
37794;DHT22;23632;48.826;15.176;2022-09-09T16:56:53;19.90;75.90
37794;DHT22;23632;48.826;15.176;2022-09-09T16:59:21;19.90;75.90
37794;DHT22;23632;48.826;15.176;2022-09-09T17:01:51;19.90;76.00
37794;DHT22;23632;48.826;15.176;2022-09-09T17:04:25;19.80;75.90
37794;DHT22;23632;48.826;15.176;2022-09-09T17:06:54;19.80;75.80
37794;DHT22;23632;48.826;15.176;2022-09-09T17:09:22;19.80;75.70
37794;DHT22;23632;48.826;15.176;2022-09-09T17:11:50;19.70;75.50
37794;DHT22;23632;48.826;15.176;2022-09-09T17:14:20;19.70;75.60
37794;DHT22;23632;48.826;15.176;2022-09-09T17:16:48;19.60;75.70
37794;DHT22;23632;48.826;15.176;2022-09-09T17:19:16;19.60;75.60
37794;DHT22;23632;48.826;15.176;2022-09-09T17:21:45;19.50;75.50
37794;DHT22;23632;48.826;15.176;2022-09-09T17:24:34;19.50;75.50
37794;DHT22;23632;48.826;15.176;2022-09-09T17:27:01;19.50;75.60
37794;DHT22;23632;48.826;15.176;2022-09-09T17:29:28;19.40;75.50
37794;DHT22;23632;48.826;15.176;2022-09-09T17:31:56;19.40;75.50
37794;DHT22;23632;48.826;15.176;2022-09-09T17:34:23;19.30;75.30
37794;DHT22;23632;48.826;15.176;2022-09-09T17:36:51;19.30;75.40
37794;DHT22;23632;48.826;15.176;2022-09-09T17:39:19;19.20;75.40
37794;DHT22;23632;48.826;15.176;2022-09-09T17:41:46;19.20;75.50